createdAt,value
2019-05-07T00:02:49.515Z,8.73
2019-05-07T00:05:54.469Z,8.53
2019-05-07T00:08:59.462Z,8.10
2019-05-07T00:12:05.184Z,9.10
2019-05-07T00:15:12.474Z,9.13
2019-05-07T00:18:17.174Z,8.83
2019-05-07T00:21:23.736Z,7.97
2019-05-07T00:24:28.690Z,9.23
2019-05-07T00:27:33.756Z,7.53
2019-05-07T00:30:38.751Z,8.87
2019-05-07T00:33:43.655Z,9.43
2019-05-07T00:37:06.731Z,10.47
2019-05-07T00:40:38.621Z,8.37
2019-05-07T00:43:45.205Z,8.07
2019-05-07T00:46:52.344Z,8.00
2019-05-07T00:49:58.703Z,8.77
2019-05-07T00:53:03.774Z,7.90
2019-05-07T00:56:08.847Z,8.83
2019-05-07T00:59:13.850Z,8.47
2019-05-07T01:02:19.439Z,8.73
2019-05-07T01:05:25.046Z,8.43
2019-05-07T01:08:32.177Z,8.60
2019-05-07T01:11:36.671Z,8.97
2019-05-07T01:14:42.078Z,8.50
2019-05-07T01:17:47.165Z,8.83
2019-05-07T01:20:53.358Z,8.43
2019-05-07T01:23:58.655Z,8.57
2019-05-07T01:27:03.726Z,7.50
2019-05-07T01:30:10.314Z,10.30
2019-05-07T01:33:23.882Z,10.10
2019-05-07T01:36:28.825Z,9.40
2019-05-07T01:39:33.754Z,9.00
2019-05-07T01:42:38.691Z,9.90
2019-05-07T01:45:49.012Z,10.13
2019-05-07T01:48:54.637Z,10.33
2019-05-07T01:51:58.378Z,10.37
2019-05-07T01:55:03.494Z,11.33
2019-05-07T01:58:08.502Z,11.40
2019-05-07T02:01:13.550Z,10.80
2019-05-07T02:04:39.611Z,10.27
2019-05-07T02:07:52.133Z,10.57
2019-05-07T02:11:03.948Z,10.20
2019-05-07T02:14:09.049Z,9.90
2019-05-07T02:17:14.132Z,10.27
2019-05-07T02:20:19.221Z,9.50
2019-05-07T02:23:24.242Z,9.87
2019-05-07T02:26:29.337Z,10.27
2019-05-07T02:29:34.262Z,11.10
2019-05-07T02:32:39.282Z,11.03
2019-05-07T02:35:44.284Z,10.87
2019-05-07T02:39:14.216Z,10.07
2019-05-07T02:42:19.294Z,10.20
2019-05-07T02:45:46.161Z,11.23
2019-05-07T02:49:03.588Z,10.33
2019-05-07T02:52:23.571Z,11.73
2019-05-07T02:55:36.104Z,10.67
2019-05-07T02:58:43.411Z,9.80
2019-05-07T03:01:48.680Z,9.97
2019-05-07T03:04:53.783Z,11.40
2019-05-07T03:07:58.803Z,9.47
2019-05-07T03:11:03.985Z,10.70
2019-05-07T03:14:08.998Z,10.50
2019-05-07T03:17:14.152Z,9.50
2019-05-07T03:20:23.611Z,13.27
2019-05-07T03:23:34.890Z,10.40
2019-05-07T03:26:44.001Z,11.00
2019-05-07T03:29:56.032Z,11.10
2019-05-07T03:33:16.139Z,9.93
2019-05-07T03:36:37.615Z,12.37
2019-05-07T03:39:43.471Z,10.97
2019-05-07T03:42:48.553Z,9.87
2019-05-07T03:45:59.752Z,9.87
2019-05-07T03:49:08.119Z,11.13
2019-05-07T03:52:13.821Z,10.53
2019-05-07T03:55:19.584Z,11.33
2019-05-07T03:58:24.884Z,11.27
2019-05-07T04:01:33.260Z,10.90
2019-05-07T04:04:37.203Z,11.27
2019-05-07T04:07:43.026Z,10.57
2019-05-07T04:10:48.485Z,10.27
2019-05-07T04:13:53.697Z,10.57
2019-05-07T04:17:13.299Z,11.90
2019-05-07T04:20:05.868Z,11.37
2019-05-07T04:23:13.496Z,12.13
2019-05-07T04:26:42.957Z,12.83
2019-05-07T04:29:48.052Z,11.57
2019-05-07T04:32:54.732Z,11.37
2019-05-07T04:36:06.746Z,13.97
2019-05-07T04:39:13.239Z,12.93
2019-05-07T04:42:18.489Z,12.23
2019-05-07T04:45:23.577Z,11.27
2019-05-07T04:48:28.525Z,11.83
2019-05-07T04:51:43.460Z,12.00
2019-05-07T04:54:48.658Z,13.20
2019-05-07T04:57:53.714Z,13.33
2019-05-07T05:00:58.856Z,14.70
2019-05-07T05:04:21.141Z,14.97
2019-05-07T05:07:13.237Z,18.07
2019-05-07T05:10:17.395Z,17.90
2019-05-07T05:13:23.691Z,18.57
2019-05-07T05:16:28.838Z,22.77
2019-05-07T05:19:33.770Z,19.43
2019-05-07T05:22:49.434Z,15.77
2019-05-07T05:25:54.435Z,16.60
2019-05-07T05:28:59.370Z,16.27
2019-05-07T05:32:04.940Z,15.10
2019-05-07T05:35:12.504Z,16.60
2019-05-07T05:38:16.968Z,16.37
2019-05-07T05:41:22.674Z,15.30
2019-05-07T05:44:32.057Z,13.83
2019-05-07T05:47:37.243Z,15.43
2019-05-07T05:50:54.999Z,15.50
2019-05-07T05:54:09.017Z,14.47
2019-05-07T05:57:42.435Z,11.63
2019-05-07T06:01:18.282Z,13.10
2019-05-07T06:04:42.014Z,14.43
2019-05-07T06:07:54.239Z,12.70
2019-05-07T06:11:17.466Z,11.60
2019-05-07T06:14:42.490Z,13.03
2019-05-07T06:18:02.583Z,12.90
2019-05-07T06:21:24.201Z,11.20
2019-05-07T06:24:42.650Z,12.87
2019-05-07T06:27:47.907Z,11.50
2019-05-07T06:30:53.066Z,10.90
2019-05-07T06:33:58.071Z,11.50
2019-05-07T06:37:03.098Z,11.10
2019-05-07T06:40:46.002Z,12.70
2019-05-07T06:43:55.085Z,11.93
2019-05-07T06:47:02.286Z,12.17
2019-05-07T06:50:07.047Z,11.20
2019-05-07T06:53:12.175Z,10.53
2019-05-07T06:56:17.314Z,11.47
2019-05-07T06:59:42.403Z,12.70
2019-05-07T07:02:53.815Z,13.80
2019-05-07T07:06:06.071Z,11.10
2019-05-07T07:09:22.501Z,12.77
2019-05-07T07:12:29.042Z,12.23
2019-05-07T07:15:34.466Z,12.30
2019-05-07T07:18:51.350Z,14.30
2019-05-07T07:21:46.696Z,13.57
2019-05-07T07:24:53.130Z,12.37
2019-05-07T07:27:58.282Z,12.27
2019-05-07T07:31:22.666Z,12.40
2019-05-07T07:34:30.312Z,11.97
2019-05-07T07:37:44.324Z,12.87
2019-05-07T07:40:55.582Z,11.50
2019-05-07T07:44:02.114Z,11.57
2019-05-07T07:47:07.332Z,12.03
2019-05-07T07:50:12.999Z,11.77
2019-05-07T07:53:18.133Z,11.17
2019-05-07T07:56:28.904Z,11.50
2019-05-07T07:59:49.318Z,12.03
2019-05-07T08:02:58.230Z,10.73
2019-05-07T08:06:03.336Z,11.17
2019-05-07T08:09:09.319Z,12.07
2019-05-07T08:12:14.423Z,10.87
2019-05-07T08:15:23.684Z,8.90
2019-05-07T08:18:26.372Z,11.70
2019-05-07T08:21:33.181Z,10.60
2019-05-07T08:24:38.324Z,10.67
2019-05-07T08:27:43.438Z,11.70
2019-05-07T08:30:58.941Z,10.57
2019-05-07T08:34:24.282Z,9.40
2019-05-07T08:37:29.486Z,9.90
2019-05-07T08:40:34.566Z,9.10
2019-05-07T08:43:39.590Z,11.83
2019-05-07T08:47:12.031Z,11.17
2019-05-07T08:50:16.690Z,12.03
2019-05-07T08:53:22.456Z,11.10
2019-05-07T08:56:27.820Z,10.60
2019-05-07T08:59:33.934Z,9.93
2019-05-07T09:02:42.042Z,9.70
2019-05-07T09:05:47.568Z,8.60
2019-05-07T09:08:52.685Z,10.23
2019-05-07T09:11:58.010Z,10.27
2019-05-07T09:15:03.140Z,9.13
2019-05-07T09:18:08.160Z,10.00
2019-05-07T09:21:13.342Z,9.47
2019-05-07T09:24:18.505Z,9.70
2019-05-07T09:27:48.859Z,8.93
2019-05-07T09:31:12.305Z,8.47
2019-05-07T09:34:18.118Z,8.50
2019-05-07T09:37:26.159Z,7.83
2019-05-07T09:40:32.037Z,8.20
2019-05-07T09:43:37.482Z,7.00
2019-05-07T09:46:43.929Z,7.73
2019-05-07T09:50:02.888Z,9.17
2019-05-07T09:52:56.037Z,9.80
2019-05-07T09:56:02.125Z,8.27
2019-05-07T09:59:07.424Z,11.30
2019-05-07T10:02:12.850Z,7.80
2019-05-07T10:05:17.968Z,8.00
2019-05-07T10:08:23.097Z,8.70
2019-05-07T10:11:34.641Z,9.30
2019-05-07T10:14:41.952Z,10.37
2019-05-07T10:17:51.287Z,9.97
2019-05-07T10:20:56.435Z,9.13
2019-05-07T10:24:02.453Z,8.80
2019-05-07T10:27:07.745Z,8.70
2019-05-07T10:30:13.067Z,10.13
2019-05-07T10:33:18.602Z,8.90
2019-05-07T10:36:23.719Z,11.50
2019-05-07T10:39:32.477Z,8.77
2019-05-07T10:42:37.395Z,8.43
2019-05-07T10:46:02.356Z,9.27
2019-05-07T10:49:14.374Z,9.30
2019-05-07T10:52:19.658Z,9.27
2019-05-07T10:55:24.758Z,8.37
2019-05-07T10:58:31.526Z,8.50
2019-05-07T11:01:42.531Z,11.03
2019-05-07T11:04:47.812Z,8.17
2019-05-07T11:07:53.916Z,9.50
2019-05-07T11:10:59.146Z,8.90
2019-05-07T11:14:04.439Z,8.87
2019-05-07T11:17:34.813Z,8.73
2019-05-07T11:20:47.341Z,7.53
2019-05-07T11:23:46.602Z,7.20
2019-05-07T11:26:53.135Z,7.20
2019-05-07T11:29:58.666Z,6.90
2019-05-07T11:33:03.694Z,7.13
2019-05-07T11:36:09.175Z,7.00
2019-05-07T11:39:14.411Z,7.27
2019-05-07T11:42:42.681Z,8.47
2019-05-07T11:46:07.534Z,8.30
2019-05-07T11:49:32.755Z,9.23
2019-05-07T11:52:42.506Z,9.70
2019-05-07T11:55:47.360Z,9.17
2019-05-07T11:58:54.690Z,7.80
2019-05-07T12:02:03.296Z,7.30
2019-05-07T12:05:08.471Z,7.57
2019-05-07T12:08:13.586Z,7.47
2019-05-07T12:11:18.778Z,6.63
2019-05-07T12:14:31.263Z,5.63
2019-05-07T12:17:31.658Z,6.43
2019-05-07T12:20:36.875Z,7.30
2019-05-07T12:23:42.241Z,6.70
2019-05-07T12:26:47.555Z,5.60
2019-05-07T12:29:52.923Z,6.40
2019-05-07T12:33:07.495Z,6.27
2019-05-07T12:36:13.403Z,5.90
2019-05-07T12:39:18.429Z,6.20
2019-05-07T12:42:24.038Z,5.90
2019-05-07T12:45:29.115Z,6.97
2019-05-07T12:48:34.126Z,6.13
2019-05-07T12:51:56.641Z,7.47
2019-05-07T12:55:11.922Z,7.63
2019-05-07T12:58:17.045Z,6.40
2019-05-07T13:01:32.917Z,9.10
2019-05-07T13:04:38.123Z,7.00
2019-05-07T13:07:53.949Z,7.27
2019-05-07T13:10:59.061Z,6.97
2019-05-07T13:14:04.539Z,6.30
2019-05-07T13:17:09.624Z,6.17
2019-05-07T13:20:14.889Z,6.50
2019-05-07T13:23:22.334Z,6.77
2019-05-07T13:26:26.795Z,7.10
2019-05-07T13:29:32.607Z,8.00
2019-05-07T13:32:38.551Z,7.43
2019-05-07T13:35:44.398Z,6.17
2019-05-07T13:38:57.291Z,6.80
2019-05-07T13:42:12.648Z,6.83
2019-05-07T13:45:48.967Z,7.03
2019-05-07T13:48:53.244Z,7.20
2019-05-07T13:52:03.429Z,7.00
2019-05-07T13:55:06.269Z,6.67
2019-05-07T13:58:14.032Z,6.30
2019-05-07T14:01:29.489Z,7.40
2019-05-07T14:04:34.590Z,7.37
2019-05-07T14:07:43.504Z,7.10
2019-05-07T14:10:48.886Z,8.57
2019-05-07T14:13:54.004Z,7.60
2019-05-07T14:16:59.485Z,7.37
2019-05-07T14:20:05.482Z,6.97
2019-05-07T14:23:12.594Z,7.13
2019-05-07T14:26:17.266Z,7.33
2019-05-07T14:29:24.674Z,8.23
2019-05-07T14:32:55.609Z,6.70
2019-05-07T14:36:06.678Z,7.13
2019-05-07T14:39:11.901Z,7.37
2019-05-07T14:42:24.239Z,7.07
2019-05-07T14:45:29.346Z,6.43
2019-05-07T14:48:36.224Z,6.57
2019-05-07T14:51:41.345Z,6.47
2019-05-07T14:54:46.524Z,7.10
2019-05-07T14:57:52.466Z,7.17
2019-05-07T15:00:57.921Z,6.97
2019-05-07T15:04:03.132Z,6.93
2019-05-07T15:07:08.229Z,7.00
2019-05-07T15:10:14.364Z,7.50
2019-05-07T15:13:21.647Z,6.40
2019-05-07T15:16:28.997Z,7.70
2019-05-07T15:19:34.195Z,6.20
2019-05-07T15:22:49.718Z,7.80
2019-05-07T15:25:52.302Z,8.00
2019-05-07T15:29:08.542Z,7.23
2019-05-07T15:32:13.663Z,6.60
2019-05-07T15:35:18.782Z,6.97
2019-05-07T15:38:23.949Z,6.17
2019-05-07T15:41:29.213Z,7.03
2019-05-07T15:44:34.394Z,6.10
2019-05-07T15:47:43.554Z,6.57
2019-05-07T15:50:48.690Z,7.07
2019-05-07T15:53:57.786Z,6.80
2019-05-07T15:57:05.216Z,6.30
2019-05-07T16:00:13.453Z,6.60
2019-05-07T16:03:23.563Z,6.70
2019-05-07T16:06:28.648Z,6.57
2019-05-07T16:09:43.347Z,7.10
2019-05-07T16:12:48.933Z,6.00
2019-05-07T16:15:53.955Z,7.60
2019-05-07T16:19:12.886Z,5.90
2019-05-07T16:22:25.093Z,6.70
2019-05-07T16:25:30.207Z,6.57
2019-05-07T16:28:35.194Z,7.80
2019-05-07T16:31:40.239Z,7.03
2019-05-07T16:34:45.346Z,6.43
2019-05-07T16:37:52.178Z,6.70
2019-05-07T16:40:57.136Z,7.50
2019-05-07T16:44:02.915Z,7.00
2019-05-07T16:47:08.123Z,7.63
2019-05-07T16:50:13.571Z,7.97
2019-05-07T16:53:27.522Z,7.70
2019-05-07T16:56:25.258Z,7.70
2019-05-07T16:59:32.328Z,6.70
2019-05-07T17:02:41.807Z,7.63
2019-05-07T17:05:46.921Z,8.57
2019-05-07T17:08:56.942Z,9.90
2019-05-07T17:12:04.276Z,8.40
2019-05-07T17:15:12.352Z,7.17
2019-05-07T17:18:17.287Z,8.20
2019-05-07T17:21:22.378Z,8.20
2019-05-07T17:24:27.495Z,8.17
2019-05-07T17:27:32.469Z,8.97
2019-05-07T17:30:37.972Z,9.07
2019-05-07T17:33:43.070Z,8.30
2019-05-07T17:36:48.083Z,8.90
2019-05-07T17:39:53.129Z,9.10
2019-05-07T17:42:58.248Z,8.40
2019-05-07T17:46:03.406Z,7.93
2019-05-07T17:49:08.324Z,7.20
2019-05-07T17:52:13.359Z,7.13
2019-05-07T17:55:18.465Z,7.17
2019-05-07T17:58:23.436Z,7.70
2019-05-07T18:01:41.806Z,7.27
2019-05-07T18:04:51.627Z,7.53
2019-05-07T18:07:54.673Z,7.73
2019-05-07T18:11:02.039Z,7.83
2019-05-07T18:14:06.645Z,7.03
2019-05-07T18:17:29.359Z,8.20
2019-05-07T18:20:34.449Z,8.37
2019-05-07T18:23:39.509Z,11.47
2019-05-07T18:26:44.604Z,8.13
2019-05-07T18:29:52.097Z,7.37
2019-05-07T18:33:03.915Z,7.53
2019-05-07T18:36:09.045Z,9.30
2019-05-07T18:39:14.167Z,9.63
2019-05-07T18:42:19.282Z,8.40
2019-05-07T18:45:24.321Z,9.50
2019-05-07T18:48:29.354Z,9.20
2019-05-07T18:51:34.403Z,8.60
2019-05-07T18:54:39.427Z,9.90
2019-05-07T18:57:44.448Z,9.07
2019-05-07T19:00:52.866Z,8.77
2019-05-07T19:03:58.688Z,9.40
2019-05-07T19:07:03.795Z,11.37
2019-05-07T19:10:09.108Z,8.60
2019-05-07T19:13:14.133Z,9.30
2019-05-07T19:16:19.357Z,9.00
2019-05-07T19:19:24.564Z,8.23
2019-05-07T19:22:29.646Z,9.27
2019-05-07T19:25:34.687Z,8.63
2019-05-07T19:28:39.862Z,8.70
2019-05-07T19:31:44.965Z,9.33
2019-05-07T19:34:50.011Z,9.03
2019-05-07T19:37:55.293Z,7.90
2019-05-07T19:41:02.194Z,8.73
2019-05-07T19:44:07.191Z,7.57
2019-05-07T19:47:12.753Z,10.00
2019-05-07T19:50:17.920Z,9.87
2019-05-07T19:53:23.589Z,10.47
2019-05-07T19:56:28.942Z,11.20
2019-05-07T19:59:34.424Z,12.00
2019-05-07T20:02:44.060Z,11.63
2019-05-07T20:05:52.391Z,10.90
2019-05-07T20:09:09.072Z,10.83
2019-05-07T20:12:04.127Z,10.70
2019-05-07T20:15:09.404Z,9.67
2019-05-07T20:18:14.817Z,11.83
2019-05-07T20:21:20.120Z,12.00
2019-05-07T20:24:25.163Z,10.60
2019-05-07T20:27:32.235Z,11.07
2019-05-07T20:30:38.796Z,12.07
2019-05-07T20:33:43.915Z,12.07
2019-05-07T20:36:48.952Z,11.23
2019-05-07T20:39:54.114Z,9.80
2019-05-07T20:42:59.350Z,10.10
2019-05-07T20:46:04.433Z,10.33
2019-05-07T20:49:09.396Z,11.00
2019-05-07T20:52:14.406Z,13.40
2019-05-07T20:55:31.526Z,10.73
2019-05-07T20:58:34.721Z,12.30
2019-05-07T21:01:41.841Z,10.73
2019-05-07T21:04:46.562Z,11.53
2019-05-07T21:07:52.442Z,12.93
2019-05-07T21:10:57.614Z,11.60
2019-05-07T21:14:03.207Z,12.33
2019-05-07T21:17:08.451Z,11.47
2019-05-07T21:20:13.584Z,11.97
2019-05-07T21:23:23.011Z,9.77
2019-05-07T21:26:28.532Z,10.80
2019-05-07T21:29:33.559Z,10.20
2019-05-07T21:32:38.621Z,10.63
2019-05-07T21:35:43.591Z,11.60
2019-05-07T21:38:48.620Z,10.10
2019-05-07T21:41:53.794Z,10.50
2019-05-07T21:44:58.866Z,11.00
2019-05-07T21:48:03.906Z,10.67
2019-05-07T21:51:08.895Z,14.27
2019-05-07T21:54:35.207Z,16.07
2019-05-07T21:57:57.554Z,16.37
2019-05-07T22:01:18.743Z,15.50
2019-05-07T22:04:23.846Z,17.07
2019-05-07T22:07:28.887Z,18.23
2019-05-07T22:10:33.983Z,21.40
2019-05-07T22:13:39.018Z,24.90
2019-05-07T22:16:44.116Z,16.53
2019-05-07T22:19:49.199Z,14.00
2019-05-07T22:22:54.205Z,10.27
2019-05-07T22:26:15.816Z,11.43
2019-05-07T22:29:06.049Z,10.50
2019-05-07T22:32:30.197Z,10.37
2019-05-07T22:35:38.550Z,8.60
2019-05-07T22:38:43.492Z,8.87
2019-05-07T22:41:48.436Z,11.70
2019-05-07T22:44:53.382Z,13.30
2019-05-07T22:47:59.575Z,13.50
2019-05-07T22:51:04.675Z,13.53
2019-05-07T22:54:11.702Z,13.50
2019-05-07T22:57:26.122Z,13.60
2019-05-07T23:00:38.644Z,14.53
2019-05-07T23:03:43.614Z,13.40
2019-05-07T23:06:48.575Z,13.20
2019-05-07T23:09:53.594Z,13.00
2019-05-07T23:12:58.682Z,12.63
2019-05-07T23:16:03.761Z,13.60
2019-05-07T23:19:08.790Z,12.17
2019-05-07T23:22:13.726Z,14.17
2019-05-07T23:25:18.821Z,13.00
2019-05-07T23:28:23.822Z,14.60
2019-05-07T23:31:28.914Z,13.50
2019-05-07T23:34:33.915Z,13.63
2019-05-07T23:37:38.878Z,12.70
2019-05-07T23:41:12.682Z,11.90
2019-05-07T23:44:19.443Z,12.10
2019-05-07T23:47:24.453Z,10.43
2019-05-07T23:50:29.486Z,11.10
2019-05-07T23:53:34.462Z,10.43
2019-05-07T23:56:39.483Z,9.43
2019-05-07T23:59:44.450Z,10.03
